Champlin, Minnesota
Current Conditions -  °F | °C
As of 4:16 AM on Monday 22 Dec 2014 (Local Time) from KMIC Reporting Station
Haze Haze  
Wind Chill: 30°   Ceiling: 700
Heat Index: 38°   Visibility: 3mi
Dew Point: 36°   Wind: 12mph
Humidity: 93%   Direction: 150°SSE
Pressure: 29.66"   Gusts: 20mph
Location:  45.17°N, 93.39°W
Report Text: KMIC 221016Z AUTO 15010G17KT 3SM BR OVC007 03/02 A2966 RMK AO2 RAE13 P0000 T00330022
Loading
Personal Weather Stations






























Interactive Weather Map New forecast layout! Learn more

10-Day Weather Forecast

Advertisements
Track Severe Weather on mobile